Time;durP1;ratioP1;P1;durP2;ratioP2;P2;SDS_P1;SDS_P2;PMS_P1;PMS_P2;Temp;Humidity;BMP_temperature;BMP_pressure;BME280_temperature;BME280_humidity;BME280_pressure;Samples;Min_cycle;Max_cycle;Signal;HPM_P1;HPM_P2
2023/08/03 00:00:23;;;;;;;1.42;0.90;;;14.70;99.90;;;;;;5019206;28;20431;-85
2023/08/03 00:02:49;;;;;;;0.93;0.70;;;14.80;99.90;;;;;;5027033;28;20036;-85
2023/08/03 00:05:17;;;;;;;3.67;0.95;;;14.80;99.90;;;;;;5023614;28;20025;-84
2023/08/03 00:07:44;;;;;;;4.60;1.00;;;14.80;99.90;;;;;;5026650;28;20022;-86
2023/08/03 00:10:09;;;;;;;4.57;1.42;;;14.80;99.90;;;;;;5025432;28;20087;-86
2023/08/03 00:12:35;;;;;;;1.95;0.90;;;14.80;99.90;;;;;;5029849;28;20026;-85
2023/08/03 00:15:00;;;;;;;0.90;0.80;;;14.80;99.90;;;;;;5022397;28;20164;-86
2023/08/03 00:17:26;;;;;;;5.43;1.40;;;14.80;99.90;;;;;;5021563;28;20033;-86
2023/08/03 00:19:51;;;;;;;2.38;0.93;;;14.80;99.90;;;;;;5029571;28;20063;-84
2023/08/03 00:22:17;;;;;;;4.60;1.15;;;14.80;99.90;;;;;;5012833;28;20030;-86
2023/08/03 00:24:43;;;;;;;1.23;0.57;;;14.80;99.90;;;;;;5008133;28;20037;-86
2023/08/03 00:27:08;;;;;;;1.02;0.55;;;14.90;99.90;;;;;;5019043;28;20424;-85
2023/08/03 00:29:34;;;;;;;2.45;1.05;;;14.80;99.90;;;;;;5018778;28;20065;-85
2023/08/03 00:32:00;;;;;;;1.98;0.70;;;14.90;99.90;;;;;;5024669;28;20044;-85
2023/08/03 00:34:27;;;;;;;2.15;1.05;;;14.90;99.90;;;;;;5013481;28;20022;-85
2023/08/03 00:36:52;;;;;;;4.55;1.15;;;14.90;99.90;;;;;;5018919;28;20028;-85
2023/08/03 00:39:18;;;;;;;3.67;1.60;;;14.90;99.90;;;;;;5027721;28;20041;-85
2023/08/03 00:41:44;;;;;;;2.47;0.95;;;14.90;99.90;;;;;;5024466;28;20029;-86
2023/08/03 00:44:09;;;;;;;4.07;1.30;;;14.90;99.90;;;;;;5021296;28;20049;-86
2023/08/03 00:46:35;;;;;;;4.32;1.15;;;15.00;99.90;;;;;;5020630;28;20068;-84
2023/08/03 00:49:01;;;;;;;1.85;1.27;;;15.00;99.90;;;;;;5019263;28;20047;-85
2023/08/03 00:51:27;;;;;;;3.75;0.95;;;15.10;99.90;;;;;;5014990;28;20429;-84
2023/08/03 00:53:54;;;;;;;2.35;1.50;;;15.10;99.90;;;;;;5013642;28;20024;-85
2023/08/03 00:56:20;;;;;;;4.85;1.40;;;15.10;99.90;;;;;;5020173;28;20029;-84
2023/08/03 00:58:46;;;;;;;3.35;1.30;;;15.10;99.90;;;;;;5016082;28;20021;-85
2023/08/03 01:01:11;;;;;;;2.10;1.13;;;15.10;99.90;;;;;;5021086;28;20037;-85
2023/08/03 01:03:37;;;;;;;1.23;0.77;;;15.20;99.90;;;;;;5019193;28;20042;-85
2023/08/03 01:06:02;;;;;;;2.20;1.35;;;15.10;99.90;;;;;;5012861;28;20029;-85
2023/08/03 01:08:28;;;;;;;1.98;1.20;;;15.10;99.90;;;;;;5013213;28;20689;-85
2023/08/03 01:10:55;;;;;;;3.65;1.48;;;15.10;99.90;;;;;;5018651;28;20750;-86
2023/08/03 01:13:21;;;;;;;4.93;1.40;;;15.20;99.90;;;;;;5017499;28;20021;-87
2023/08/03 01:15:47;;;;;;;1.08;1.00;;;15.20;99.90;;;;;;5021803;28;20020;-87
2023/08/03 01:18:12;;;;;;;3.53;1.20;;;15.20;99.90;;;;;;5028274;28;20022;-86
2023/08/03 01:20:40;;;;;;;2.05;1.20;;;15.20;99.90;;;;;;5022117;28;20493;-85
2023/08/03 01:23:06;;;;;;;2.35;1.30;;;15.20;99.90;;;;;;5022900;28;20033;-85
2023/08/03 01:25:33;;;;;;;6.45;1.25;;;15.30;99.90;;;;;;5017842;28;20076;-85
2023/08/03 01:27:58;;;;;;;3.30;1.20;;;15.30;99.90;;;;;;5014518;28;20113;-86
2023/08/03 01:30:24;;;;;;;4.50;1.48;;;15.30;99.90;;;;;;5019181;28;20117;-86
2023/08/03 01:32:51;;;;;;;3.65;1.20;;;15.30;99.90;;;;;;5023633;28;20033;-86
2023/08/03 01:35:17;;;;;;;2.53;1.38;;;15.30;99.90;;;;;;5027580;28;20036;-87
2023/08/03 01:37:43;;;;;;;2.83;1.30;;;15.30;99.90;;;;;;5015491;28;20474;-87
2023/08/03 01:40:12;;;;;;;4.22;1.52;;;15.30;99.90;;;;;;5022084;28;20021;-86
2023/08/03 01:42:40;;;;;;;3.67;1.40;;;15.30;99.90;;;;;;5022885;28;20446;-86
2023/08/03 01:45:06;;;;;;;2.50;1.48;;;15.30;99.90;;;;;;5022717;28;20074;-87
2023/08/03 01:47:32;;;;;;;3.17;1.70;;;15.30;99.90;;;;;;5016920;28;20109;-85
2023/08/03 01:49:58;;;;;;;3.88;1.40;;;15.30;99.90;;;;;;5022475;28;20101;-86
2023/08/03 01:52:24;;;;;;;4.93;1.75;;;15.30;99.90;;;;;;5016959;28;20032;-85
2023/08/03 01:54:49;;;;;;;4.93;1.65;;;15.30;99.90;;;;;;5024404;28;20083;-87
2023/08/03 01:57:17;;;;;;;2.95;1.65;;;15.30;99.90;;;;;;5020256;28;20100;-86
2023/08/03 01:59:43;;;;;;;1.73;1.30;;;15.30;99.90;;;;;;5024998;28;20471;-85
2023/08/03 02:02:08;;;;;;;3.83;1.45;;;15.30;99.90;;;;;;5022765;28;20033;-86
2023/08/03 02:04:34;;;;;;;2.05;1.60;;;15.30;99.90;;;;;;5017542;28;20033;-86
2023/08/03 02:07:09;;;;;;;2.20;1.83;;;15.30;99.90;;;;;;5022208;28;20045;-87
2023/08/03 02:09:35;;;;;;;5.32;1.70;;;15.30;99.90;;;;;;5020060;28;20145;-87
2023/08/03 02:12:01;;;;;;;3.22;1.80;;;15.30;99.90;;;;;;5025663;28;20057;-87
2023/08/03 02:14:26;;;;;;;1.75;1.33;;;15.30;99.90;;;;;;5021536;28;20131;-85
2023/08/03 02:16:52;;;;;;;1.40;1.30;;;15.40;99.90;;;;;;5029205;28;20139;-86
2023/08/03 02:19:17;;;;;;;4.10;1.75;;;15.40;99.90;;;;;;5025455;28;20025;-86
2023/08/03 02:21:43;;;;;;;2.25;1.42;;;15.30;99.90;;;;;;5014681;28;20096;-86
2023/08/03 02:24:09;;;;;;;3.08;1.63;;;15.30;99.90;;;;;;5020629;28;20026;-86
2023/08/03 02:26:34;;;;;;;3.15;1.42;;;15.30;99.90;;;;;;5013234;28;20034;-86
2023/08/03 02:29:00;;;;;;;3.35;1.63;;;15.30;99.90;;;;;;5028360;28;20033;-86
2023/08/03 02:31:26;;;;;;;1.60;1.42;;;15.40;99.90;;;;;;5021613;28;20045;-86
2023/08/03 02:33:51;;;;;;;3.42;1.77;;;15.40;99.90;;;;;;5027804;28;20472;-87
2023/08/03 02:36:17;;;;;;;1.40;1.30;;;15.30;99.90;;;;;;5026072;28;20022;-85
2023/08/03 02:38:42;;;;;;;5.53;1.63;;;15.30;99.90;;;;;;5019303;28;20030;-87
2023/08/03 02:41:08;;;;;;;1.45;1.30;;;15.40;99.90;;;;;;5027353;28;20026;-85
2023/08/03 02:43:33;;;;;;;5.82;2.00;;;15.40;99.90;;;;;;5022678;28;20061;-86
2023/08/03 02:45:59;;;;;;;5.45;1.52;;;15.40;99.90;;;;;;5026864;28;20029;-86
2023/08/03 02:48:25;;;;;;;1.65;1.50;;;15.40;99.90;;;;;;5024230;28;20060;-87
2023/08/03 02:50:50;;;;;;;4.45;1.48;;;15.40;99.90;;;;;;5025593;28;20688;-87
2023/08/03 02:53:16;;;;;;;4.18;1.98;;;15.40;99.90;;;;;;5023743;28;20030;-86
2023/08/03 02:55:41;;;;;;;2.50;1.23;;;15.40;99.90;;;;;;5025498;28;20044;-87
2023/08/03 02:58:07;;;;;;;3.08;1.45;;;15.40;99.90;;;;;;5024121;28;20029;-86
2023/08/03 03:00:33;;;;;;;2.33;1.63;;;15.40;99.90;;;;;;5026892;28;20033;-85
2023/08/03 03:02:58;;;;;;;3.15;1.52;;;15.40;99.90;;;;;;5021846;28;20548;-86
2023/08/03 03:05:24;;;;;;;4.97;1.77;;;15.40;99.90;;;;;;5022216;28;20053;-86
2023/08/03 03:07:49;;;;;;;3.38;1.67;;;15.40;99.90;;;;;;5022013;28;20025;-86
2023/08/03 03:10:15;;;;;;;3.30;1.55;;;15.40;99.90;;;;;;5024196;28;20021;-86
2023/08/03 03:12:41;;;;;;;4.32;1.52;;;15.40;99.90;;;;;;5025755;28;20028;-86
2023/08/03 03:15:07;;;;;;;5.45;2.13;;;15.40;99.90;;;;;;5022873;28;20108;-87
2023/08/03 03:17:33;;;;;;;6.00;1.95;;;15.40;99.90;;;;;;5027330;28;20029;-86
2023/08/03 03:19:59;;;;;;;4.47;1.60;;;15.40;99.90;;;;;;5019387;28;20032;-87
2023/08/03 03:22:24;;;;;;;4.10;1.95;;;15.40;99.90;;;;;;5024333;28;20061;-84
2023/08/03 03:24:50;;;;;;;2.83;1.55;;;15.40;99.90;;;;;;5022011;28;20021;-85
2023/08/03 03:27:15;;;;;;;2.15;1.50;;;15.40;99.90;;;;;;5014024;28;20718;-86
2023/08/03 03:29:41;;;;;;;4.25;2.00;;;15.40;99.90;;;;;;5019456;28;20029;-86
2023/08/03 03:32:07;;;;;;;1.65;1.55;;;15.40;99.90;;;;;;5015217;28;20040;-86
2023/08/03 03:34:32;;;;;;;2.47;1.67;;;15.40;99.90;;;;;;5025933;28;20045;-86
2023/08/03 03:36:58;;;;;;;3.05;1.63;;;15.40;99.90;;;;;;5017814;28;20026;-86
2023/08/03 03:39:23;;;;;;;5.00;2.10;;;15.40;99.90;;;;;;5024417;28;20036;-86
2023/08/03 03:41:49;;;;;;;4.00;1.70;;;15.40;99.90;;;;;;5022725;28;20546;-85
2023/08/03 03:44:15;;;;;;;2.60;1.40;;;15.40;99.90;;;;;;5022616;28;20030;-86
2023/08/03 03:46:40;;;;;;;3.70;1.70;;;15.40;99.90;;;;;;5019351;28;20072;-86
2023/08/03 03:49:06;;;;;;;3.13;1.52;;;15.40;99.90;;;;;;5022548;28;20033;-84
2023/08/03 03:51:31;;;;;;;3.72;1.20;;;15.40;99.90;;;;;;5011803;28;20108;-87
2023/08/03 03:53:57;;;;;;;3.63;1.77;;;15.40;99.90;;;;;;5026453;28;20079;-85
2023/08/03 03:56:22;;;;;;;3.78;1.52;;;15.40;99.90;;;;;;5022678;28;20613;-86
2023/08/03 03:58:48;;;;;;;3.00;1.48;;;15.40;99.90;;;;;;5028574;28;20022;-87
2023/08/03 04:01:14;;;;;;;4.47;1.77;;;15.40;99.90;;;;;;5021584;28;20057;-86
2023/08/03 04:03:39;;;;;;;2.42;1.33;;;15.40;99.90;;;;;;5016867;28;20026;-87
2023/08/03 04:06:05;;;;;;;3.63;1.83;;;15.50;99.90;;;;;;5023956;28;20017;-86
2023/08/03 04:08:30;;;;;;;3.80;1.60;;;15.50;99.90;;;;;;5020395;28;20084;-86
2023/08/03 04:10:56;;;;;;;3.90;1.42;;;15.40;99.90;;;;;;5026921;28;20025;-86
2023/08/03 04:13:21;;;;;;;4.22;1.88;;;15.50;99.90;;;;;;5017164;28;20022;-86
2023/08/03 04:15:47;;;;;;;2.80;1.25;;;15.50;99.90;;;;;;5027330;28;20112;-86
2023/08/03 04:18:13;;;;;;;2.17;1.85;;;15.50;99.90;;;;;;5021067;28;20422;-86
2023/08/03 04:20:38;;;;;;;6.10;2.80;;;15.50;99.90;;;;;;5019971;28;20121;-86
2023/08/03 04:23:04;;;;;;;4.40;2.22;;;15.50;99.90;;;;;;5024677;28;20541;-85
2023/08/03 04:25:30;;;;;;;7.25;1.55;;;15.50;99.90;;;;;;5018101;28;20109;-86
2023/08/03 04:27:55;;;;;;;4.65;2.05;;;15.50;99.90;;;;;;5029886;28;20388;-87
2023/08/03 04:30:21;;;;;;;2.50;1.27;;;15.50;99.90;;;;;;5019021;28;21528;-87
2023/08/03 04:32:47;;;;;;;2.83;1.60;;;15.50;99.90;;;;;;5024333;28;20145;-87
2023/08/03 04:35:14;;;;;;;2.22;1.63;;;15.60;99.90;;;;;;5017573;28;20119;-86
2023/08/03 04:37:39;;;;;;;3.00;1.58;;;15.60;99.90;;;;;;5016640;28;20041;-87
2023/08/03 04:40:06;;;;;;;4.10;1.70;;;15.60;99.90;;;;;;5021675;28;20364;-87
2023/08/03 04:42:32;;;;;;;1.60;1.20;;;15.60;99.90;;;;;;5019587;28;20018;-87
2023/08/03 04:44:57;;;;;;;2.53;1.58;;;15.60;99.90;;;;;;5027571;28;20025;-86
2023/08/03 04:47:23;;;;;;;2.13;1.45;;;15.60;99.90;;;;;;5012936;28;20044;-86
2023/08/03 04:49:49;;;;;;;2.63;1.67;;;15.60;99.90;;;;;;5023920;28;20488;-88
2023/08/03 04:52:14;;;;;;;2.60;1.60;;;15.60;99.90;;;;;;5016899;28;20029;-87
2023/08/03 04:54:40;;;;;;;2.03;1.50;;;15.70;99.90;;;;;;5013224;28;20165;-87
2023/08/03 04:57:05;;;;;;;7.97;1.65;;;15.60;99.90;;;;;;5024089;28;20033;-87
2023/08/03 04:59:31;;;;;;;2.50;1.40;;;15.70;99.90;;;;;;5020207;28;20505;-87
2023/08/03 05:01:57;;;;;;;2.97;1.38;;;15.60;99.90;;;;;;5019773;28;20069;-87
2023/08/03 05:04:22;;;;;;;1.77;0.95;;;15.70;99.90;;;;;;5025574;28;20093;-85
2023/08/03 05:06:48;;;;;;;4.07;1.60;;;15.70;99.90;;;;;;5025934;28;20021;-83
2023/08/03 05:09:13;;;;;;;3.70;2.13;;;15.70;99.90;;;;;;5023898;28;20036;-84
2023/08/03 05:11:39;;;;;;;2.88;1.63;;;15.70;99.90;;;;;;5028090;28;20156;-84
2023/08/03 05:14:04;;;;;;;2.03;1.58;;;15.70;99.90;;;;;;5020272;28;20039;-86
2023/08/03 05:16:30;;;;;;;5.68;1.85;;;15.70;99.90;;;;;;5026418;28;20025;-86
2023/08/03 05:18:55;;;;;;;1.92;1.50;;;15.60;99.90;;;;;;5022328;28;20029;-86
2023/08/03 05:21:21;;;;;;;1.75;1.10;;;15.60;99.90;;;;;;5019597;28;20026;-85
2023/08/03 05:23:47;;;;;;;2.67;1.45;;;15.60;99.90;;;;;;5033373;28;20034;-86
2023/08/03 05:26:13;;;;;;;4.53;1.77;;;15.60;99.90;;;;;;5015756;28;20030;-86
2023/08/03 05:28:39;;;;;;;2.17;1.35;;;15.60;99.90;;;;;;5019566;28;20030;-86
2023/08/03 05:31:05;;;;;;;2.35;1.20;;;15.60;99.90;;;;;;5018280;28;20559;-85
2023/08/03 05:33:33;;;;;;;2.70;1.73;;;15.60;99.90;;;;;;5020771;28;20117;-85
2023/08/03 05:35:59;;;;;;;6.10;1.92;;;15.60;99.90;;;;;;5025270;28;20022;-86
2023/08/03 05:38:24;;;;;;;2.42;2.00;;;15.70;99.90;;;;;;5018212;28;20029;-86
2023/08/03 05:40:50;;;;;;;3.13;1.25;;;15.70;99.90;;;;;;5019810;28;20052;-86
2023/08/03 05:43:16;;;;;;;3.22;1.23;;;15.60;99.90;;;;;;5013598;28;20110;-85
2023/08/03 05:45:50;;;;;;;2.28;1.55;;;15.70;99.90;;;;;;5023094;28;20095;-85
2023/08/03 05:48:20;;;;;;;3.42;1.60;;;15.70;99.90;;;;;;5031828;28;20025;-85
2023/08/03 05:50:48;;;;;;;2.10;1.40;;;15.60;99.90;;;;;;5033583;28;20034;-85
2023/08/03 05:53:15;;;;;;;3.33;1.42;;;15.70;99.90;;;;;;5029907;28;20251;-86
2023/08/03 05:55:42;;;;;;;1.27;1.08;;;15.70;99.90;;;;;;5033265;28;20029;-85
2023/08/03 05:58:10;;;;;;;1.85;1.25;;;15.80;99.90;;;;;;5021724;28;20036;-86
2023/08/03 06:00:36;;;;;;;1.73;0.90;;;15.80;99.90;;;;;;5028307;28;20021;-85
2023/08/03 06:03:03;;;;;;;3.72;1.70;;;15.80;99.90;;;;;;5015704;28;20129;-85
2023/08/03 06:05:45;;;;;;;2.53;1.75;;;15.90;99.90;;;;;;5025005;28;20033;-85
2023/08/03 06:08:22;;;;;;;5.40;1.27;;;15.90;99.90;;;;;;5021388;28;20026;-86
2023/08/03 06:10:52;;;;;;;2.75;1.30;;;15.90;99.90;;;;;;5021517;28;20083;-86
2023/08/03 06:13:20;;;;;;;2.85;0.90;;;15.90;99.90;;;;;;5013481;28;20024;-86
2023/08/03 06:15:47;;;;;;;2.85;1.20;;;15.90;99.90;;;;;;5013143;28;20063;-86
2023/08/03 06:18:20;;;;;;;2.05;1.10;;;15.90;99.90;;;;;;5024608;28;20033;-85
2023/08/03 06:20:48;;;;;;;3.20;1.30;;;16.00;99.90;;;;;;5023067;28;20018;-85
2023/08/03 06:23:19;;;;;;;2.88;1.10;;;15.90;99.90;;;;;;5025360;28;20026;-86
2023/08/03 06:25:47;;;;;;;1.98;1.33;;;15.90;99.90;;;;;;5022830;28;20503;-88
2023/08/03 06:28:15;;;;;;;6.15;1.10;;;15.90;99.90;;;;;;5025463;28;20030;-86
2023/08/03 06:30:42;;;;;;;2.22;1.15;;;15.90;99.90;;;;;;5022195;28;20034;-87
2023/08/03 06:33:10;;;;;;;3.65;2.10;;;16.00;99.90;;;;;;5029341;28;20108;-86
2023/08/03 06:35:41;;;;;;;1.77;1.33;;;16.00;99.90;;;;;;5016075;28;20132;-85
2023/08/03 06:38:09;;;;;;;4.05;1.10;;;16.00;99.90;;;;;;5023350;28;20029;-86
2023/08/03 06:40:35;;;;;;;1.60;1.15;;;16.10;99.90;;;;;;5022854;28;20045;-85
2023/08/03 06:43:02;;;;;;;0.82;0.75;;;16.10;99.90;;;;;;5023701;28;20079;-86
2023/08/03 06:45:32;;;;;;;1.00;0.88;;;16.20;99.90;;;;;;5022691;28;20026;-86
2023/08/03 06:47:58;;;;;;;1.48;0.85;;;16.20;99.90;;;;;;5011035;28;20767;-86
2023/08/03 06:50:25;;;;;;;2.63;1.38;;;16.30;99.90;;;;;;5024371;28;20080;-87
2023/08/03 06:52:51;;;;;;;1.38;1.00;;;16.30;99.90;;;;;;5016896;28;20022;-86
2023/08/03 06:55:18;;;;;;;2.53;1.48;;;16.30;99.90;;;;;;5022413;28;20026;-86
2023/08/03 06:57:44;;;;;;;2.00;1.27;;;16.30;99.90;;;;;;5010111;28;20029;-87
2023/08/03 07:00:12;;;;;;;2.28;1.42;;;16.30;99.90;;;;;;5026724;28;20140;-88
2023/08/03 07:02:38;;;;;;;1.10;1.10;;;16.40;99.90;;;;;;5028576;28;20029;-87
2023/08/03 07:05:04;;;;;;;2.10;1.10;;;16.40;99.90;;;;;;5015999;28;20033;-90
2023/08/03 07:07:31;;;;;;;1.30;1.20;;;16.40;99.90;;;;;;5017620;28;20047;-88
2023/08/03 07:09:57;;;;;;;1.40;1.30;;;16.40;99.90;;;;;;5016429;28;20460;-88
2023/08/03 07:12:22;;;;;;;2.65;1.50;;;16.50;99.90;;;;;;5027604;28;20033;-86
2023/08/03 07:14:48;;;;;;;1.60;1.50;;;16.50;99.90;;;;;;5012648;28;20526;-87
2023/08/03 07:17:13;;;;;;;1.75;1.42;;;16.50;99.90;;;;;;5031062;28;20139;-87
2023/08/03 07:19:40;;;;;;;2.15;1.60;;;16.60;99.90;;;;;;5015081;28;20030;-87
2023/08/03 07:22:07;;;;;;;1.98;1.48;;;16.60;99.90;;;;;;5011544;28;20034;-87
2023/08/03 07:24:33;;;;;;;1.52;1.42;;;16.60;99.90;;;;;;5020149;28;20095;-86
2023/08/03 07:27:01;;;;;;;3.35;1.90;;;16.60;99.90;;;;;;5024645;28;20037;-89
2023/08/03 07:29:28;;;;;;;1.80;1.70;;;16.60;99.90;;;;;;5011250;28;20029;-87
2023/08/03 07:31:54;;;;;;;2.53;2.33;;;16.60;99.90;;;;;;5010819;28;20060;-86
2023/08/03 07:34:21;;;;;;;1.70;1.58;;;16.60;99.90;;;;;;5011027;28;20113;-87
2023/08/03 07:36:46;;;;;;;1.67;1.58;;;16.60;99.90;;;;;;5011899;28;20651;-87
2023/08/03 07:39:13;;;;;;;2.65;2.00;;;16.70;99.90;;;;;;5011503;28;20058;-89
2023/08/03 07:41:38;;;;;;;2.50;1.67;;;16.70;99.90;;;;;;5011158;28;20060;-86
2023/08/03 07:44:04;;;;;;;2.00;1.83;;;16.70;99.90;;;;;;5011120;28;20034;-90
2023/08/03 07:46:30;;;;;;;2.00;1.80;;;16.80;99.90;;;;;;5011144;28;20034;-87
2023/08/03 07:48:59;;;;;;;1.75;1.65;;;16.80;99.90;;;;;;5010418;28;20430;-88
2023/08/03 07:51:24;;;;;;;3.25;1.67;;;16.90;99.90;;;;;;5010746;28;20080;-87
2023/08/03 07:53:51;;;;;;;1.90;1.73;;;16.90;99.90;;;;;;5011991;28;20033;-87
2023/08/03 07:56:18;;;;;;;2.75;1.77;;;16.90;99.90;;;;;;5011086;28;20017;-87
2023/08/03 07:58:45;;;;;;;1.98;1.70;;;16.90;99.90;;;;;;5010277;28;20105;-87
2023/08/03 08:01:11;;;;;;;2.08;1.85;;;16.80;99.90;;;;;;5008881;28;20034;-87
2023/08/03 08:03:38;;;;;;;2.03;1.80;;;16.80;99.90;;;;;;5010189;28;20022;-86
2023/08/03 08:06:09;;;;;;;1.63;1.52;;;16.80;99.90;;;;;;5010529;28;20076;-87
2023/08/03 08:08:35;;;;;;;2.97;2.33;;;16.90;99.90;;;;;;5009628;28;20030;-87
2023/08/03 08:11:01;;;;;;;2.45;1.85;;;17.00;99.90;;;;;;5009957;28;20505;-87
2023/08/03 08:13:27;;;;;;;2.50;2.00;;;17.00;99.90;;;;;;5010225;28;20113;-87
2023/08/03 08:16:06;;;;;;;1.95;1.70;;;17.10;99.90;;;;;;5009604;28;20112;-89
2023/08/03 08:18:34;;;;;;;2.88;2.15;;;17.10;99.90;;;;;;4990107;28;20121;-87
2023/08/03 08:21:02;;;;;;;1.70;1.60;;;17.20;99.90;;;;;;4989822;28;20026;-91
2023/08/03 08:23:28;;;;;;;1.85;1.70;;;17.20;99.90;;;;;;4989933;28;20030;-86
2023/08/03 08:25:54;;;;;;;3.33;1.85;;;17.20;99.90;;;;;;4992917;28;20022;-86
2023/08/03 08:28:20;;;;;;;1.83;1.55;;;17.30;99.90;;;;;;5009673;28;20570;-86
2023/08/03 08:30:46;;;;;;;1.85;1.30;;;17.30;99.90;;;;;;5008701;28;20030;-87
2023/08/03 08:33:13;;;;;;;1.10;1.10;;;17.30;99.90;;;;;;5009642;28;20048;-88
2023/08/03 08:35:39;;;;;;;2.22;0.80;;;17.30;99.90;;;;;;5009806;28;20030;-88
2023/08/03 08:38:05;;;;;;;2.70;2.50;;;17.20;99.90;;;;;;5009669;28;20018;-89
2023/08/03 08:40:38;;;;;;;1.33;0.90;;;17.20;99.90;;;;;;5009597;28;20029;-89
2023/08/03 08:43:05;;;;;;;1.25;1.10;;;17.20;99.90;;;;;;5009216;28;20113;-86
2023/08/03 08:45:31;;;;;;;1.50;1.17;;;17.30;99.90;;;;;;5009674;28;20030;-87
2023/08/03 08:47:57;;;;;;;1.35;1.10;;;17.40;99.90;;;;;;5022221;28;20024;-85
2023/08/03 08:50:23;;;;;;;1.27;1.17;;;17.50;99.90;;;;;;5029655;28;20544;-85
2023/08/03 08:52:50;;;;;;;1.05;1.02;;;17.60;99.90;;;;;;5010328;28;20117;-85
2023/08/03 08:55:26;;;;;;;3.15;1.45;;;17.70;99.90;;;;;;5010392;28;20484;-86
2023/08/03 08:57:52;;;;;;;1.27;1.10;;;17.80;99.90;;;;;;5008422;28;20026;-87
2023/08/03 09:00:19;;;;;;;1.73;1.30;;;17.90;99.90;;;;;;5014129;28;20030;-86
2023/08/03 09:02:45;;;;;;;1.45;1.35;;;18.00;99.90;;;;;;5009693;28;20057;-85
2023/08/03 09:05:14;;;;;;;1.98;1.10;;;18.00;99.90;;;;;;5009585;28;20026;-86
2023/08/03 09:07:39;;;;;;;1.27;1.17;;;18.00;99.90;;;;;;5028140;28;20307;-85
2023/08/03 09:10:05;;;;;;;1.08;1.08;;;18.00;99.90;;;;;;5029316;28;20559;-85
2023/08/03 09:12:31;;;;;;;0.93;0.90;;;18.00;99.90;;;;;;5029161;28;20526;-85
2023/08/03 09:19:07;;;;;;;0.60;0.60;;;17.90;99.90;;;;;;5014866;28;20037;-84
2023/08/03 09:22:05;;;;;;;2.08;1.70;;;17.80;99.90;;;;;;5002486;28;20033;-86
2023/08/03 09:25:07;;;;;;;0.80;0.80;;;18.00;99.90;;;;;;5016272;28;20037;-85
2023/08/03 09:27:34;;;;;;;0.63;0.63;;;18.10;99.90;;;;;;5015165;28;20076;-86
2023/08/03 09:30:04;;;;;;;0.50;0.50;;;18.10;99.90;;;;;;5008019;28;20121;-85
2023/08/03 09:32:34;;;;;;;1.02;0.70;;;18.10;99.90;;;;;;5009077;28;20064;-84
2023/08/03 09:35:00;;;;;;;0.60;0.60;;;18.10;99.90;;;;;;5017846;28;20108;-84
2023/08/03 09:37:36;;;;;;;0.55;0.55;;;18.20;99.90;;;;;;5014882;28;20018;-86
2023/08/03 09:40:05;;;;;;;1.95;0.50;;;18.20;99.90;;;;;;5024142;28;20377;-86
2023/08/03 09:42:35;;;;;;;1.42;0.60;;;18.20;99.90;;;;;;5018620;28;20492;-86
2023/08/03 09:45:03;;;;;;;0.57;0.57;;;18.30;99.90;;;;;;5024104;28;20025;-85
2023/08/03 09:47:33;;;;;;;3.33;0.80;;;18.30;99.90;;;;;;5017670;28;20072;-85
2023/08/03 09:50:02;;;;;;;1.75;0.70;;;18.40;99.90;;;;;;5021594;28;20067;-86
2023/08/03 09:52:29;;;;;;;2.13;0.75;;;18.50;99.90;;;;;;5008869;28;20031;-86
2023/08/03 09:55:18;;;;;;;1.15;0.70;;;18.60;99.90;;;;;;5022184;28;20021;-86
2023/08/03 09:57:52;;;;;;;0.60;0.60;;;18.60;99.90;;;;;;5019177;28;20092;-84
2023/08/03 10:00:18;;;;;;;0.65;0.65;;;18.50;99.90;;;;;;5020444;28;20084;-85
2023/08/03 10:03:00;;;;;;;0.63;0.60;;;18.50;99.90;;;;;;5008999;28;20022;-84
2023/08/03 10:05:29;;;;;;;1.15;0.85;;;18.40;99.90;;;;;;5020689;28;20036;-86
2023/08/03 10:08:13;;;;;;;0.93;0.50;;;18.30;99.90;;;;;;5018959;28;20036;-85
2023/08/03 10:10:48;;;;;;;0.50;0.50;;;18.20;99.90;;;;;;5023470;28;20164;-85
2023/08/03 10:13:14;;;;;;;0.68;0.68;;;18.20;99.90;;;;;;5016436;28;20029;-85
2023/08/03 10:16:16;;;;;;;;;;;;;;;;;;;;;
2023/08/03 10:18:43;;;;;;;0.88;0.73;;;18.40;99.90;;;;;;4989923;28;20036;-85
2023/08/03 10:21:25;;;;;;;1.50;0.80;;;18.50;99.90;;;;;;5012717;28;20022;-85
2023/08/03 10:24:15;;;;;;;1.65;0.70;;;18.50;99.90;;;;;;5006416;28;20018;-84
2023/08/03 10:26:59;;;;;;;2.35;0.68;;;18.60;99.90;;;;;;4995923;28;20436;-85
2023/08/03 10:29:54;;;;;;;0.85;0.77;;;18.70;99.90;;;;;;5021566;28;20036;-86
2023/08/03 10:32:30;;;;;;;0.52;0.40;;;18.80;99.90;;;;;;5018245;28;20515;-85
2023/08/03 10:35:35;;;;;;;0.68;0.68;;;18.90;99.90;;;;;;5016528;28;20542;-85
2023/08/03 10:38:00;;;;;;;0.82;0.50;;;19.00;99.90;;;;;;5005960;28;20017;-85
2023/08/03 10:40:26;;;;;;;0.88;0.50;;;18.90;99.90;;;;;;5016177;28;20167;-84
2023/08/03 10:46:31;;;;;;;0.45;0.38;;;18.90;99.90;;;;;;5012888;28;20496;-86
2023/08/03 10:49:48;;;;;;;0.50;0.50;;;18.90;99.90;;;;;;5020151;28;20049;-85
2023/08/03 10:52:19;;;;;;;0.57;0.50;;;18.90;99.90;;;;;;5012397;28;20021;-86
2023/08/03 10:54:46;;;;;;;0.60;0.60;;;18.90;99.90;;;;;;5023912;28;20033;-84
2023/08/03 11:00:54;;;;;;;0.65;0.65;;;18.90;99.90;;;;;;4959657;28;20467;-85
2023/08/03 11:03:20;;;;;;;0.70;0.50;;;18.90;99.90;;;;;;5016710;28;20022;-84
2023/08/03 11:05:54;;;;;;;0.98;0.55;;;18.90;99.90;;;;;;5015660;28;20048;-84
2023/08/03 11:08:20;;;;;;;0.35;0.35;;;18.90;99.90;;;;;;5013973;28;20028;-85
2023/08/03 11:10:49;;;;;;;0.50;0.50;;;18.90;99.90;;;;;;5025703;28;20108;-85
2023/08/03 11:13:15;;;;;;;0.63;0.52;;;18.90;99.90;;;;;;5019544;28;20109;-83
2023/08/03 11:15:41;;;;;;;0.70;0.70;;;19.10;99.90;;;;;;5020471;28;20424;-85
2023/08/03 11:18:13;;;;;;;0.70;0.65;;;19.10;99.90;;;;;;5012869;28;20026;-86
2023/08/03 11:20:42;;;;;;;0.57;0.57;;;19.10;99.90;;;;;;5018577;28;20121;-85
2023/08/03 11:23:12;;;;;;;0.50;0.50;;;19.10;99.90;;;;;;5023717;28;20057;-84
2023/08/03 11:25:39;;;;;;;0.43;0.43;;;19.10;99.90;;;;;;5019969;28;20790;-85
2023/08/03 11:28:05;;;;;;;0.60;0.60;;;19.20;99.90;;;;;;5025404;28;20037;-88
2023/08/03 11:30:31;;;;;;;0.55;0.50;;;19.20;99.90;;;;;;5019854;28;20342;-86
2023/08/03 11:32:59;;;;;;;1.27;0.77;;;19.30;99.90;;;;;;5010957;28;20128;-89
2023/08/03 11:35:25;;;;;;;0.80;0.80;;;19.40;99.90;;;;;;5011010;28;20037;-86
2023/08/03 11:37:50;;;;;;;2.75;0.50;;;19.40;99.90;;;;;;5020784;28;20033;-88
2023/08/03 11:40:17;;;;;;;0.43;0.35;;;19.40;99.90;;;;;;5020396;28;20053;-87
2023/08/03 11:42:44;;;;;;;0.50;0.40;;;19.40;99.90;;;;;;5012103;28;20033;-87
2023/08/03 11:45:12;;;;;;;0.30;0.30;;;19.40;99.90;;;;;;5025010;28;20034;-87
2023/08/03 11:47:48;;;;;;;1.60;0.63;;;19.30;99.90;;;;;;5018415;28;20071;-88
2023/08/03 11:50:17;;;;;;;1.30;0.40;;;19.30;99.90;;;;;;5021561;28;20120;-88
2023/08/03 11:52:43;;;;;;;0.57;0.57;;;19.30;99.90;;;;;;5007199;28;20022;-87
2023/08/03 11:55:09;;;;;;;2.47;0.60;;;19.40;99.90;;;;;;5018516;28;20032;-86
2023/08/03 12:00:20;;;;;;;1.60;0.50;;;19.30;99.90;;;;;;5026007;28;20412;-87
2023/08/03 12:02:46;;;;;;;1.45;0.65;;;19.30;99.90;;;;;;5019968;28;20021;-88
2023/08/03 12:05:12;;;;;;;0.47;0.47;;;19.20;99.90;;;;;;5014210;28;20374;-88
2023/08/03 12:07:38;;;;;;;0.57;0.40;;;19.10;99.90;;;;;;5021164;28;20168;-88
2023/08/03 12:10:14;;;;;;;1.52;0.50;;;19.20;99.90;;;;;;5008666;28;20155;-85
2023/08/03 12:12:40;;;;;;;;;;;19.20;99.90;;;;;;5023362;28;20021;-87
2023/08/03 12:15:06;;;;;;;3.05;0.75;;;19.10;99.90;;;;;;5023477;28;20054;-87
2023/08/03 12:17:32;;;;;;;0.90;0.60;;;19.10;99.90;;;;;;5022986;28;20129;-87
2023/08/03 12:19:58;;;;;;;0.93;0.60;;;19.20;99.90;;;;;;5018157;28;20022;-87
2023/08/03 12:22:23;;;;;;;1.30;0.50;;;19.20;99.90;;;;;;5022283;28;20025;-87
2023/08/03 12:24:49;;;;;;;3.47;1.60;;;19.20;99.90;;;;;;5020655;28;20164;-88
2023/08/03 12:27:17;;;;;;;1.30;0.80;;;19.40;99.90;;;;;;5022103;28;20508;-86
2023/08/03 12:29:43;;;;;;;1.90;0.90;;;19.50;99.90;;;;;;5023203;28;20452;-87
2023/08/03 12:32:09;;;;;;;2.28;0.88;;;19.70;99.90;;;;;;5021918;28;20077;-88
2023/08/03 12:34:34;;;;;;;2.45;0.70;;;19.60;99.90;;;;;;5016932;28;20034;-85
2023/08/03 12:37:00;;;;;;;1.77;0.90;;;19.70;99.90;;;;;;5017243;28;20544;-88
2023/08/03 12:39:26;;;;;;;1.67;0.95;;;19.70;99.90;;;;;;5022320;28;20373;-84
2023/08/03 12:41:51;;;;;;;2.17;0.70;;;19.70;99.90;;;;;;5019842;28;20566;-87
2023/08/03 12:44:17;;;;;;;1.55;0.70;;;19.70;99.90;;;;;;5022567;28;20056;-83
2023/08/03 12:46:43;;;;;;;2.15;1.05;;;19.80;99.90;;;;;;5022577;28;20033;-88
2023/08/03 12:49:08;;;;;;;2.28;0.80;;;19.90;99.90;;;;;;5021487;28;20498;-87
2023/08/03 12:51:37;;;;;;;1.55;0.63;;;19.90;99.90;;;;;;5016526;28;20037;-88
2023/08/03 12:54:05;;;;;;;4.60;0.90;;;20.00;99.90;;;;;;5023378;28;20025;-88
2023/08/03 12:56:31;;;;;;;3.00;0.80;;;20.10;99.90;;;;;;5017542;28;20042;-88
2023/08/03 12:59:05;;;;;;;3.08;0.88;;;20.20;99.90;;;;;;5002397;28;20369;-85
2023/08/03 13:01:31;;;;;;;3.80;0.85;;;20.20;99.90;;;;;;5015803;28;20488;-86
2023/08/03 13:03:57;;;;;;;3.88;1.02;;;20.20;99.90;;;;;;5018911;28;20036;-85